Time;durP1;ratioP1;P1;durP2;ratioP2;P2;SDS_P1;SDS_P2;PMS_P1;PMS_P2;Temp;Humidity;BMP_temperature;BMP_pressure;BME280_temperature;BME280_humidity;BME280_pressure;Samples;Min_cycle;Max_cycle;Signal;HPM_P1;HPM_P2
2020/12/16 00:01:34;;;;;;;2.00;1.40;;;15.40;67.80;;;;;;5005771;28;20037;-80
2020/12/16 00:03:59;;;;;;;;;;;15.40;67.80;;;;;;5012572;28;20064;-80
2020/12/16 00:06:25;;;;;;;3.03;1.40;;;15.40;67.80;;;;;;5007978;28;20352;-80
2020/12/16 00:08:53;;;;;;;1.73;1.17;;;15.40;67.90;;;;;;5014038;28;20049;-81
2020/12/16 00:11:19;;;;;;;1.70;1.08;;;15.40;67.90;;;;;;5008070;28;20069;-80
2020/12/16 00:13:47;;;;;;;3.63;1.63;;;15.40;67.90;;;;;;5011771;28;20054;-81
2020/12/16 00:16:12;;;;;;;2.50;1.20;;;15.40;67.90;;;;;;5008694;28;20030;-80
2020/12/16 00:18:38;;;;;;;1.23;0.98;;;15.40;67.90;;;;;;5008403;28;20056;-81
2020/12/16 00:21:06;;;;;;;1.45;1.05;;;15.40;67.80;;;;;;5010198;28;20045;-80
2020/12/16 00:23:37;;;;;;;2.53;1.40;;;15.40;67.80;;;;;;5005491;28;20034;-81
2020/12/16 00:26:03;;;;;;;3.42;1.40;;;15.40;67.90;;;;;;4994774;28;20121;-80
2020/12/16 00:28:28;;;;;;;1.60;1.20;;;15.40;67.90;;;;;;4998937;28;20049;-80
2020/12/16 00:30:59;;;;;;;2.35;1.20;;;15.40;67.90;;;;;;5007701;28;20060;-80
2020/12/16 00:33:27;;;;;;;2.50;1.30;;;15.40;67.90;;;;;;5009847;28;20053;-80
2020/12/16 00:35:55;;;;;;;1.75;1.30;;;15.40;67.90;;;;;;5008598;28;20471;-80
2020/12/16 00:38:26;;;;;;;;;;;15.40;67.90;;;;;;5011123;28;20168;-80
2020/12/16 00:40:51;;;;;;;1.52;1.05;;;15.40;67.90;;;;;;5017255;28;19927;-81
2020/12/16 00:43:20;;;;;;;3.50;1.52;;;15.40;67.90;;;;;;5008761;28;20042;-80
2020/12/16 00:45:54;;;;;;;3.22;1.70;;;15.30;67.90;;;;;;5012978;28;20040;-80
2020/12/16 00:48:19;;;;;;;2.90;1.40;;;15.40;67.90;;;;;;5012802;28;20104;-80
2020/12/16 00:50:45;;;;;;;1.40;1.05;;;15.40;67.90;;;;;;5003347;28;20029;-80
2020/12/16 00:53:11;;;;;;;2.42;1.42;;;15.40;67.90;;;;;;5011622;28;20128;-80
2020/12/16 00:55:42;;;;;;;1.38;0.95;;;15.30;67.90;;;;;;5005591;28;20041;-81
2020/12/16 00:58:11;;;;;;;2.00;1.20;;;15.30;67.90;;;;;;5002275;28;20049;-80
2020/12/16 01:00:42;;;;;;;2.72;1.50;;;15.40;67.90;;;;;;5011352;28;20041;-80
2020/12/16 01:03:07;;;;;;;2.00;1.33;;;15.40;67.90;;;;;;5009917;28;20438;-80
2020/12/16 01:05:33;;;;;;;1.90;1.48;;;15.30;67.90;;;;;;5010916;28;20364;-80
2020/12/16 01:07:59;;;;;;;2.33;1.50;;;15.40;67.90;;;;;;5011709;28;20538;-80
2020/12/16 01:10:25;;;;;;;3.25;1.83;;;15.40;67.90;;;;;;4999301;28;20424;-81
2020/12/16 01:12:53;;;;;;;2.80;1.23;;;15.40;67.90;;;;;;5011879;28;20061;-80
2020/12/16 01:15:21;;;;;;;2.83;1.50;;;15.30;67.90;;;;;;5010623;28;20040;-80
2020/12/16 01:17:49;;;;;;;2.90;1.92;;;15.40;67.90;;;;;;4994941;28;20042;-80
2020/12/16 01:20:22;;;;;;;1.70;1.40;;;15.30;67.90;;;;;;5011794;28;20117;-80
2020/12/16 01:22:52;;;;;;;2.33;1.40;;;15.40;67.90;;;;;;4996168;28;20184;-81
2020/12/16 01:25:19;;;;;;;2.17;1.58;;;15.40;67.90;;;;;;5006039;28;20087;-80
2020/12/16 01:27:51;;;;;;;2.97;1.50;;;15.40;67.90;;;;;;4992485;28;20045;-80
2020/12/16 01:30:17;;;;;;;2.78;1.35;;;15.40;67.90;;;;;;5010341;28;20103;-80
2020/12/16 01:32:51;;;;;;;2.55;1.60;;;15.40;68.00;;;;;;5009027;28;20042;-80
2020/12/16 01:35:22;;;;;;;2.42;1.45;;;15.40;67.90;;;;;;5010699;28;20029;-82
2020/12/16 01:38:10;;;;;;;2.05;1.30;;;15.40;67.90;;;;;;5011045;28;20395;-81
2020/12/16 01:40:40;;;;;;;2.03;1.45;;;15.30;67.90;;;;;;5009469;28;20046;-80
2020/12/16 01:43:11;;;;;;;3.13;1.55;;;15.30;67.90;;;;;;4984688;28;20037;-80
2020/12/16 01:45:37;;;;;;;4.13;2.00;;;15.30;68.00;;;;;;4993179;28;20044;-80
2020/12/16 01:48:07;;;;;;;1.92;1.33;;;15.30;67.90;;;;;;5012001;28;20041;-80
2020/12/16 01:50:33;;;;;;;3.17;1.73;;;15.30;67.90;;;;;;5009554;28;20125;-80
2020/12/16 01:53:00;;;;;;;3.20;1.88;;;15.40;68.00;;;;;;5007309;28;20030;-80
2020/12/16 01:55:27;;;;;;;3.20;1.20;;;15.40;68.00;;;;;;5016969;28;20034;-80
2020/12/16 01:58:05;;;;;;;3.55;2.03;;;15.40;68.00;;;;;;5016671;28;20065;-80
2020/12/16 02:00:37;;;;;;;5.03;2.97;;;15.40;67.90;;;;;;5010114;28;20057;-80
2020/12/16 02:03:07;;;;;;;3.03;1.50;;;15.30;67.90;;;;;;5009231;28;20125;-80
2020/12/16 02:05:36;;;;;;;2.88;1.80;;;15.30;67.90;;;;;;4991512;28;20030;-80
2020/12/16 02:08:08;;;;;;;1.50;1.27;;;15.30;68.00;;;;;;5010516;28;20061;-80
2020/12/16 02:10:39;;;;;;;2.38;1.45;;;15.40;68.00;;;;;;5010759;28;20030;-80
2020/12/16 02:13:09;;;;;;;2.85;1.73;;;15.40;68.00;;;;;;5010353;28;20034;-80
2020/12/16 02:15:40;;;;;;;2.90;1.90;;;15.40;68.00;;;;;;5010167;28;20038;-80
2020/12/16 02:18:07;;;;;;;4.70;2.05;;;15.40;68.00;;;;;;4991808;28;20040;-80
2020/12/16 02:20:47;;;;;;;2.63;1.50;;;15.40;67.90;;;;;;5008409;28;20041;-80
2020/12/16 02:23:26;;;;;;;3.95;1.67;;;15.40;67.90;;;;;;5005794;28;20037;-80
2020/12/16 02:25:52;;;;;;;3.85;2.00;;;15.40;67.90;;;;;;4992273;28;20328;-81
2020/12/16 02:28:18;;;;;;;2.63;1.30;;;15.40;68.00;;;;;;4991976;28;20050;-80
2020/12/16 02:30:48;;;;;;;3.00;2.05;;;15.40;68.00;;;;;;5008785;28;20412;-80
2020/12/16 02:33:14;;;;;;;4.10;1.80;;;15.40;68.00;;;;;;4991518;28;20395;-80
2020/12/16 02:35:44;;;;;;;2.67;1.70;;;15.40;67.90;;;;;;5004980;28;20145;-81
2020/12/16 02:38:10;;;;;;;3.15;1.83;;;15.30;68.00;;;;;;5013721;28;20403;-81
2020/12/16 02:40:36;;;;;;;1.73;1.25;;;15.40;67.90;;;;;;4995618;28;20054;-80
2020/12/16 02:43:02;;;;;;;3.00;1.70;;;15.40;68.00;;;;;;5008433;28;20037;-80
2020/12/16 02:45:28;;;;;;;1.70;1.40;;;15.30;68.00;;;;;;5011427;28;20072;-80
2020/12/16 02:48:00;;;;;;;3.28;1.80;;;15.40;67.90;;;;;;5008451;28;20081;-81
2020/12/16 02:50:29;;;;;;;2.95;1.85;;;15.30;67.90;;;;;;5009261;28;20042;-80
2020/12/16 02:52:59;;;;;;;4.20;1.92;;;15.30;68.00;;;;;;5006543;28;20088;-81
2020/12/16 02:55:28;;;;;;;2.65;1.48;;;15.40;68.00;;;;;;5008424;28;20065;-80
2020/12/16 02:57:56;;;;;;;2.28;1.48;;;15.40;68.00;;;;;;5023936;28;20122;-80
2020/12/16 03:00:22;;;;;;;;;;;15.40;68.00;;;;;;5002020;28;20038;-80
2020/12/16 03:02:50;;;;;;;3.50;1.60;;;15.30;68.00;;;;;;5023940;28;19928;-80
2020/12/16 03:05:16;;;;;;;;;;;15.40;68.00;;;;;;5023004;28;20038;-81
2020/12/16 03:07:41;;;;;;;3.42;2.10;;;15.30;68.00;;;;;;5012279;28;20347;-81
2020/12/16 03:10:09;;;;;;;2.97;1.85;;;15.30;68.00;;;;;;5013118;28;20423;-80
2020/12/16 03:12:41;;;;;;;;;;;15.30;68.00;;;;;;5014688;28;20034;-80
2020/12/16 03:15:11;;;;;;;2.63;1.83;;;15.30;68.00;;;;;;5013726;28;19909;-79
2020/12/16 03:17:37;;;;;;;4.65;2.20;;;15.30;68.00;;;;;;5030508;28;20042;-78
2020/12/16 03:20:03;;;;;;;2.20;1.73;;;15.30;68.00;;;;;;5012330;28;20041;-80
2020/12/16 03:22:42;;;;;;;2.05;1.50;;;15.30;68.10;;;;;;5014586;28;20053;-80
2020/12/16 03:25:12;;;;;;;2.78;1.88;;;15.30;68.10;;;;;;5013822;28;20057;-80
2020/12/16 03:27:41;;;;;;;2.85;2.05;;;15.30;68.10;;;;;;5013229;28;20049;-80
2020/12/16 03:30:11;;;;;;;4.00;2.42;;;15.30;68.10;;;;;;5011911;28;20117;-80
2020/12/16 03:32:41;;;;;;;2.63;1.50;;;15.30;68.10;;;;;;5019294;28;20194;-80
2020/12/16 03:35:07;;;;;;;4.78;2.28;;;15.30;68.10;;;;;;5010149;28;20533;-80
2020/12/16 03:37:37;;;;;;;2.47;1.58;;;15.30;68.10;;;;;;5021979;28;20102;-80
2020/12/16 03:40:03;;;;;;;2.60;1.90;;;15.30;68.00;;;;;;5012888;28;20038;-80
2020/12/16 03:42:35;;;;;;;3.08;1.75;;;15.40;68.00;;;;;;5012568;28;20064;-80
2020/12/16 03:45:01;;;;;;;2.38;1.80;;;15.30;68.00;;;;;;4993005;28;20049;-80
2020/12/16 03:47:27;;;;;;;2.78;1.80;;;15.30;68.00;;;;;;5013701;28;20048;-80
2020/12/16 03:49:58;;;;;;;2.92;1.75;;;15.30;68.00;;;;;;5013636;28;20136;-80
2020/12/16 03:52:24;;;;;;;4.70;2.20;;;15.30;68.00;;;;;;5012703;28;20034;-80
2020/12/16 03:54:54;;;;;;;3.25;2.00;;;15.30;68.10;;;;;;5013482;28;20038;-82
2020/12/16 03:57:22;;;;;;;3.30;2.33;;;15.30;68.10;;;;;;5006629;28;20069;-80
2020/12/16 03:59:48;;;;;;;3.08;1.85;;;15.30;68.00;;;;;;5022069;28;20093;-80
2020/12/16 04:02:16;;;;;;;3.38;2.20;;;15.30;68.10;;;;;;5011929;28;20053;-80
2020/12/16 04:04:44;;;;;;;3.15;2.00;;;15.30;68.10;;;;;;4996164;28;20560;-80
2020/12/16 04:07:10;;;;;;;;;;;15.30;68.10;;;;;;5018603;28;20050;-80
2020/12/16 04:25:54;;;;;;;3.83;1.95;;;15.30;68.10;;;;;;5011671;28;20046;-79
2020/12/16 04:28:36;;;;;;;3.83;2.55;;;15.30;68.10;;;;;;5009707;28;20061;-78
2020/12/16 04:31:04;;;;;;;3.53;1.90;;;15.30;68.10;;;;;;4989272;28;20041;-80
2020/12/16 04:33:36;;;;;;;;;;;15.30;68.10;;;;;;4996881;28;20117;-78
2020/12/16 04:36:14;;;;;;;3.70;1.98;;;15.30;68.10;;;;;;5010322;28;19936;-78
2020/12/16 04:41:42;;;;;;;3.20;2.10;;;15.30;68.10;;;;;;5013850;28;20036;-77
2020/12/16 04:44:15;;;;;;;2.80;1.77;;;15.30;68.20;;;;;;4990986;28;20061;-78
2020/12/16 04:47:44;;;;;;;2.97;1.80;;;15.30;68.20;;;;;;4997258;28;20038;-78
2020/12/16 04:50:11;;;;;;;3.20;1.67;;;15.30;68.20;;;;;;5000110;28;20080;-77
2020/12/16 04:53:06;;;;;;;3.33;1.80;;;15.30;68.10;;;;;;4998050;28;20060;-78
2020/12/16 04:55:35;;;;;;;3.13;2.03;;;15.30;68.10;;;;;;5005171;28;20404;-79
2020/12/16 04:58:09;;;;;;;3.55;1.92;;;15.30;68.10;;;;;;4992994;28;20088;-77
2020/12/16 05:00:39;;;;;;;3.53;2.20;;;15.30;68.20;;;;;;5004547;28;20053;-79
2020/12/16 05:03:12;;;;;;;2.92;2.25;;;15.30;68.20;;;;;;4996828;28;20033;-79
2020/12/16 05:05:45;;;;;;;5.40;2.50;;;15.30;68.20;;;;;;5011832;28;20034;-80
2020/12/16 05:08:19;;;;;;;3.80;2.08;;;15.30;68.20;;;;;;4995722;28;20089;-81
2020/12/16 05:10:53;;;;;;;3.40;2.10;;;15.30;68.20;;;;;;4996788;28;20034;-82
2020/12/16 05:13:47;;;;;;;2.28;1.50;;;15.30;68.20;;;;;;4963091;28;20035;-82
2020/12/16 05:16:14;;;;;;;2.90;1.65;;;15.30;68.20;;;;;;4982977;28;20069;-82
2020/12/16 05:18:56;;;;;;;4.18;2.10;;;15.30;68.20;;;;;;4966044;28;20060;-81
2020/12/16 05:21:29;;;;;;;2.97;1.95;;;15.30;68.20;;;;;;4952117;29;20189;-82
2020/12/16 05:24:14;;;;;;;4.97;2.50;;;15.30;68.20;;;;;;4968134;28;20043;-83
2020/12/16 05:27:08;;;;;;;2.67;1.90;;;15.30;68.20;;;;;;4921007;29;20103;-81
2020/12/16 05:29:40;;;;;;;3.13;2.10;;;15.30;68.20;;;;;;4936197;29;20401;-81
2020/12/16 05:33:00;;;;;;;3.40;1.98;;;15.30;68.20;;;;;;4938013;29;20085;-79
2020/12/16 05:35:46;;;;;;;2.53;1.90;;;15.30;68.20;;;;;;4914690;29;20033;-80
2020/12/16 05:38:14;;;;;;;3.53;2.20;;;15.30;68.20;;;;;;4897573;29;20398;-80
2020/12/16 05:41:04;;;;;;;4.28;2.75;;;15.30;68.20;;;;;;4896888;29;20511;-80
2020/12/16 05:43:41;;;;;;;3.28;2.17;;;15.30;68.20;;;;;;4904368;29;20511;-81
2020/12/16 05:46:39;;;;;;;3.55;1.85;;;15.30;68.20;;;;;;4888225;29;20107;-81
2020/12/16 05:49:35;;;;;;;3.25;1.83;;;15.30;68.20;;;;;;4895974;29;20088;-80
2020/12/16 05:52:30;;;;;;;4.05;2.10;;;15.30;68.20;;;;;;4892265;29;20371;-81
2020/12/16 05:54:59;;;;;;;2.75;2.10;;;15.30;68.20;;;;;;4899544;29;20108;-81
2020/12/16 05:57:38;;;;;;;3.30;1.90;;;15.30;68.20;;;;;;4917242;29;20047;-80
2020/12/16 06:00:36;;;;;;;4.28;2.05;;;15.30;68.20;;;;;;4895970;29;20087;-80
2020/12/16 06:03:10;;;;;;;;;;;15.30;68.20;;;;;;4924119;29;20126;-81
2020/12/16 06:05:53;;;;;;;2.85;1.90;;;15.30;68.20;;;;;;4930803;29;20024;-80
2020/12/16 06:08:32;;;;;;;3.83;2.25;;;15.30;68.20;;;;;;4904475;29;20422;-81
2020/12/16 06:11:16;;;;;;;4.15;2.33;;;15.30;68.20;;;;;;4930393;28;20035;-80
2020/12/16 06:14:07;;;;;;;4.28;2.13;;;15.30;68.20;;;;;;4963184;28;20432;-80
2020/12/16 06:16:48;;;;;;;3.08;2.08;;;15.30;68.20;;;;;;4989054;28;20035;-81
2020/12/16 06:19:36;;;;;;;2.53;1.88;;;15.30;68.20;;;;;;4988900;28;20061;-80
2020/12/16 06:22:22;;;;;;;2.90;1.90;;;15.30;68.20;;;;;;4987824;28;20039;-81
2020/12/16 06:25:14;;;;;;;2.55;2.00;;;15.30;68.20;;;;;;4967894;28;20038;-80
2020/12/16 06:28:11;;;;;;;3.33;1.85;;;15.30;68.20;;;;;;5004031;28;20041;-80
2020/12/16 06:31:10;;;;;;;2.53;1.92;;;15.30;68.20;;;;;;4990602;28;20108;-80
2020/12/16 06:34:14;;;;;;;3.03;1.88;;;15.30;68.20;;;;;;4942046;29;20040;-80
2020/12/16 06:36:45;;;;;;;3.95;2.50;;;15.30;68.20;;;;;;4927775;29;20430;-80
2020/12/16 06:39:35;;;;;;;4.57;2.80;;;15.30;68.20;;;;;;4898086;29;20402;-81
2020/12/16 06:42:09;;;;;;;3.40;1.88;;;15.30;68.20;;;;;;4934941;29;20040;-80
2020/12/16 06:45:16;;;;;;;5.30;2.13;;;15.30;68.20;;;;;;4902097;29;20434;-80
2020/12/16 06:47:49;;;;;;;3.67;2.20;;;15.30;68.20;;;;;;4907869;29;20494;-80
2020/12/16 06:51:09;;;;;;;3.30;2.10;;;15.30;68.20;;;;;;4915062;29;20458;-79
2020/12/16 06:53:59;;;;;;;;;;;;;;;;;;;;;
2020/12/16 06:56:29;;;;;;;3.42;2.08;;;15.30;68.20;;;;;;4912777;29;20032;-80
2020/12/16 06:59:13;;;;;;;3.25;2.03;;;15.30;68.20;;;;;;4942704;29;20619;-80
2020/12/16 07:02:14;;;;;;;3.58;2.10;;;15.30;68.20;;;;;;4917878;29;20154;-80
2020/12/16 07:05:36;;;;;;;3.45;2.22;;;15.30;68.20;;;;;;4919811;29;20091;-81
2020/12/16 07:08:38;;;;;;;3.47;2.00;;;15.30;68.20;;;;;;4898768;29;20442;-81
2020/12/16 07:11:14;;;;;;;3.67;2.38;;;15.30;68.20;;;;;;4974563;28;20442;-80
2020/12/16 07:14:35;;;;;;;4.28;2.60;;;15.30;68.20;;;;;;4972694;28;20038;-79
2020/12/16 07:17:14;;;;;;;2.53;1.77;;;15.30;68.20;;;;;;5009134;28;20034;-81
2020/12/16 07:19:44;;;;;;;3.88;1.83;;;15.30;68.20;;;;;;5003596;28;20440;-80
2020/12/16 07:22:40;;;;;;;2.95;1.90;;;15.30;68.20;;;;;;5012065;28;20419;-80
2020/12/16 07:25:40;;;;;;;3.10;1.90;;;15.30;68.20;;;;;;4994460;28;20037;-80
2020/12/16 07:28:23;;;;;;;2.42;1.77;;;15.30;68.20;;;;;;4995356;28;20445;-80
2020/12/16 07:31:09;;;;;;;3.00;2.00;;;15.30;68.20;;;;;;4978785;28;20038;-80
2020/12/16 07:33:51;;;;;;;3.40;2.15;;;15.30;68.20;;;;;;4995432;28;20132;-80
2020/12/16 07:36:42;;;;;;;3.92;2.20;;;15.30;68.20;;;;;;4991628;28;20436;-80
2020/12/16 07:39:16;;;;;;;2.83;1.98;;;15.30;68.10;;;;;;4990536;28;20034;-80
2020/12/16 07:42:12;;;;;;;3.45;2.00;;;15.30;68.20;;;;;;4993206;28;20179;-79
2020/12/16 07:45:10;;;;;;;4.30;2.63;;;15.30;68.20;;;;;;5000623;28;20045;-80
2020/12/16 07:48:07;;;;;;;3.40;2.08;;;15.30;68.20;;;;;;4996284;28;20038;-81
2020/12/16 07:50:59;;;;;;;2.97;1.98;;;15.30;68.20;;;;;;4995093;28;20031;-80
2020/12/16 07:54:01;;;;;;;3.72;1.88;;;15.30;68.20;;;;;;4992340;28;20404;-80
2020/12/16 07:56:40;;;;;;;2.97;2.38;;;15.30;68.20;;;;;;5003873;28;20031;-79
2020/12/16 07:59:28;;;;;;;3.22;2.10;;;15.30;68.20;;;;;;4969150;28;20121;-81
2020/12/16 08:02:12;;;;;;;5.50;1.98;;;15.30;68.20;;;;;;4986847;28;20396;-80
2020/12/16 08:04:53;;;;;;;4.60;2.30;;;15.30;68.20;;;;;;4988495;28;20401;-79
2020/12/16 08:07:27;;;;;;;3.83;2.13;;;15.30;68.20;;;;;;4959923;28;20405;-81
2020/12/16 08:10:17;;;;;;;3.00;1.95;;;15.30;68.10;;;;;;5001769;28;20035;-79
2020/12/16 08:12:57;;;;;;;2.97;1.95;;;15.30;68.10;;;;;;4929454;29;20052;-81
2020/12/16 08:15:46;;;;;;;4.25;1.98;;;15.40;68.10;;;;;;4938323;28;20444;-81
2020/12/16 08:18:42;;;;;;;2.92;1.92;;;15.30;68.10;;;;;;4938652;29;20062;-81
2020/12/16 08:21:43;;;;;;;3.28;2.22;;;15.40;68.00;;;;;;4949721;28;20031;-80
2020/12/16 08:24:15;;;;;;;3.63;2.00;;;15.40;68.00;;;;;;4938732;29;20035;-81
2020/12/16 08:26:54;;;;;;;4.00;2.10;;;15.40;68.00;;;;;;4930367;29;20047;-80
2020/12/16 08:29:28;;;;;;;3.08;1.80;;;15.40;68.00;;;;;;4935264;29;20125;-80
2020/12/16 08:31:56;;;;;;;2.83;2.00;;;15.40;67.90;;;;;;4929471;29;20043;-80
2020/12/16 08:34:27;;;;;;;3.45;2.15;;;15.40;67.90;;;;;;4934512;29;20417;-79
2020/12/16 08:37:17;;;;;;;2.83;1.90;;;15.40;67.80;;;;;;4918829;29;20501;-81
2020/12/16 08:39:47;;;;;;;2.90;2.10;;;15.40;67.80;;;;;;4924526;29;20106;-80
2020/12/16 08:42:32;;;;;;;2.50;2.00;;;15.50;67.70;;;;;;4892907;29;20133;-80
2020/12/16 08:45:16;;;;;;;2.75;1.95;;;15.50;67.70;;;;;;4915365;29;20446;-74
2020/12/16 08:47:48;;;;;;;5.22;2.95;;;15.50;67.70;;;;;;4917722;29;20130;-77
2020/12/16 08:50:21;;;;;;;4.50;2.80;;;15.60;67.80;;;;;;4969806;28;20373;-76
2020/12/16 08:52:54;;;;;;;3.80;2.55;;;15.60;67.80;;;;;;4976991;28;20057;-77
2020/12/16 08:55:47;;;;;;;4.70;2.80;;;15.60;67.70;;;;;;4975268;28;20105;-79
2020/12/16 08:58:15;;;;;;;5.97;3.30;;;15.60;67.70;;;;;;4971186;28;20049;-78
2020/12/16 09:00:48;;;;;;;3.45;2.22;;;15.50;67.80;;;;;;4951820;28;20408;-80
2020/12/16 09:03:21;;;;;;;4.07;2.30;;;15.60;67.80;;;;;;4973821;28;20453;-78
2020/12/16 09:06:03;;;;;;;5.57;3.22;;;15.50;67.80;;;;;;4971269;28;20041;-81
2020/12/16 09:08:42;;;;;;;3.97;2.17;;;15.50;67.80;;;;;;4981154;28;20172;-80
2020/12/16 09:11:25;;;;;;;4.65;2.35;;;15.60;67.70;;;;;;4985549;28;20069;-80
2020/12/16 09:13:58;;;;;;;3.30;2.45;;;15.50;67.70;;;;;;4985815;28;20035;-80
2020/12/16 09:16:36;;;;;;;4.22;2.75;;;15.60;67.70;;;;;;4957199;28;20370;-80
2020/12/16 09:19:08;;;;;;;5.32;2.97;;;15.60;67.70;;;;;;4974213;28;20403;-80
2020/12/16 09:21:42;;;;;;;3.78;2.50;;;15.50;67.70;;;;;;4963197;28;20159;-80
2020/12/16 09:24:13;;;;;;;6.32;2.92;;;15.50;67.70;;;;;;4984862;28;20438;-79
2020/12/16 09:26:51;;;;;;;4.43;2.30;;;15.50;67.60;;;;;;4972770;28;20114;-79
2020/12/16 09:29:28;;;;;;;6.35;3.10;;;15.50;67.70;;;;;;4974391;28;20109;-81
2020/12/16 09:32:27;;;;;;;3.65;2.40;;;15.50;67.60;;;;;;5007909;28;20460;-79
2020/12/16 09:35:15;;;;;;;4.93;2.47;;;15.50;67.60;;;;;;5012877;28;20384;-80
2020/12/16 09:37:51;;;;;;;4.75;2.60;;;15.60;67.60;;;;;;4994252;28;20100;-80
2020/12/16 09:40:30;;;;;;;3.60;2.20;;;15.60;67.50;;;;;;4986235;28;20053;-81
2020/12/16 09:43:04;;;;;;;5.00;2.50;;;15.60;67.50;;;;;;4993635;28;20099;-79
2020/12/16 09:45:38;;;;;;;4.40;2.63;;;15.60;67.50;;;;;;5011919;28;20504;-80
2020/12/16 09:48:09;;;;;;;4.13;2.88;;;15.60;67.50;;;;;;4994993;28;20659;-80
2020/12/16 09:50:52;;;;;;;3.63;2.42;;;15.60;67.50;;;;;;4990298;28;20386;-78
2020/12/16 09:53:31;;;;;;;4.07;2.50;;;15.60;67.50;;;;;;4989568;28;20369;-80
2020/12/16 09:56:09;;;;;;;3.80;2.42;;;15.60;67.50;;;;;;5011885;28;20038;-79
2020/12/16 09:58:40;;;;;;;4.13;2.35;;;15.50;67.50;;;;;;5009063;28;20501;-79
2020/12/16 10:01:07;;;;;;;4.22;2.58;;;15.60;67.50;;;;;;4993266;28;20042;-80
2020/12/16 10:03:36;;;;;;;4.30;2.95;;;15.60;67.50;;;;;;4994479;28;20060;-80
2020/12/16 10:06:05;;;;;;;3.53;2.28;;;15.60;67.50;;;;;;5004806;28;20399;-78
2020/12/16 10:08:31;;;;;;;4.13;2.72;;;15.60;67.50;;;;;;5010882;28;20127;-78
2020/12/16 10:10:59;;;;;;;4.43;2.90;;;15.60;67.50;;;;;;5010949;28;20033;-78
2020/12/16 10:13:31;;;;;;;3.67;2.45;;;15.50;67.60;;;;;;4987386;28;20034;-78
2020/12/16 10:15:59;;;;;;;5.53;3.17;;;15.50;67.60;;;;;;5012160;28;20104;-78
2020/12/16 10:18:27;;;;;;;4.40;2.35;;;15.50;67.60;;;;;;5011511;28;20160;-78
2020/12/16 10:20:56;;;;;;;4.50;2.45;;;15.60;67.60;;;;;;5007045;28;20402;-78
2020/12/16 10:23:24;;;;;;;3.47;2.20;;;15.60;67.50;;;;;;5011502;28;20081;-78
2020/12/16 10:25:51;;;;;;;4.63;2.42;;;15.50;67.60;;;;;;4994955;28;20439;-78
2020/12/16 10:28:24;;;;;;;3.60;2.33;;;15.60;67.50;;;;;;4995444;28;20578;-79
2020/12/16 10:30:52;;;;;;;4.20;2.42;;;15.60;67.50;;;;;;4997475;28;20403;-78
2020/12/16 10:33:18;;;;;;;3.15;2.50;;;15.60;67.50;;;;;;5003938;28;20038;-78
2020/12/16 10:35:48;;;;;;;4.00;2.13;;;15.60;67.50;;;;;;5000703;28;20396;-78
2020/12/16 10:38:19;;;;;;;5.40;3.28;;;15.70;67.50;;;;;;4992809;28;20038;-78
2020/12/16 10:40:56;;;;;;;5.07;2.60;;;15.60;67.40;;;;;;4993636;28;20178;-77
2020/12/16 10:43:27;;;;;;;4.05;2.03;;;15.60;67.40;;;;;;4989964;28;20059;-78
2020/12/16 10:45:59;;;;;;;3.70;2.45;;;15.60;67.30;;;;;;4989335;28;20035;-78
2020/12/16 10:48:28;;;;;;;4.07;2.60;;;15.60;67.30;;;;;;4992133;28;20135;-78
2020/12/16 10:50:56;;;;;;;3.40;2.42;;;15.60;67.30;;;;;;4992018;28;20062;-78
2020/12/16 10:53:25;;;;;;;3.67;2.38;;;15.60;67.30;;;;;;4997306;28;20476;-78
2020/12/16 10:55:58;;;;;;;4.03;2.53;;;15.70;67.30;;;;;;5012179;28;20444;-78
2020/12/16 10:58:25;;;;;;;4.10;2.83;;;15.70;67.20;;;;;;4977006;28;20457;-78
2020/12/16 11:01:01;;;;;;;3.20;2.58;;;15.70;67.20;;;;;;4989385;28;20184;-78
2020/12/16 11:03:30;;;;;;;4.22;2.22;;;15.70;67.20;;;;;;4988443;28;20043;-78
2020/12/16 11:06:06;;;;;;;3.72;2.33;;;15.70;67.20;;;;;;4987898;28;20156;-78
2020/12/16 11:08:40;;;;;;;4.55;2.60;;;15.70;67.20;;;;;;4993588;28;20365;-78
2020/12/16 11:11:19;;;;;;;3.25;2.20;;;15.70;67.20;;;;;;4990710;28;20395;-78
2020/12/16 11:13:50;;;;;;;4.07;2.35;;;15.70;67.20;;;;;;4983040;28;20428;-79
2020/12/16 11:16:17;;;;;;;3.45;2.30;;;15.70;67.20;;;;;;4991013;28;20373;-78
2020/12/16 11:18:52;;;;;;;4.35;2.65;;;15.70;67.20;;;;;;4971993;28;20092;-78
2020/12/16 11:21:21;;;;;;;3.75;2.50;;;15.70;67.20;;;;;;4988772;28;20171;-78
2020/12/16 11:23:54;;;;;;;4.03;2.10;;;15.70;67.20;;;;;;4994664;28;20451;-78
2020/12/16 11:26:26;;;;;;;4.05;2.50;;;15.70;67.20;;;;;;4992423;28;20381;-79
2020/12/16 11:28:58;;;;;;;3.13;1.92;;;15.70;67.20;;;;;;4993731;28;20073;-78
2020/12/16 11:31:28;;;;;;;4.07;2.30;;;15.70;67.20;;;;;;4993832;28;20069;-78
2020/12/16 11:34:01;;;;;;;3.58;2.20;;;15.70;67.20;;;;;;4994356;28;20042;-78
2020/12/16 11:36:31;;;;;;;3.05;2.13;;;15.70;67.20;;;;;;4978829;28;20034;-78
2020/12/16 11:39:00;;;;;;;4.28;2.80;;;15.70;67.20;;;;;;5014383;28;20038;-78
2020/12/16 11:41:28;;;;;;;3.70;2.40;;;15.70;67.20;;;;;;4990753;28;20047;-78
2020/12/16 11:44:06;;;;;;;4.28;2.40;;;15.70;67.20;;;;;;4988512;28;20117;-79
2020/12/16 11:46:35;;;;;;;3.95;2.30;;;15.60;67.20;;;;;;5009373;28;20125;-79
2020/12/16 11:49:04;;;;;;;3.70;2.30;;;15.70;67.20;;;;;;5009021;28;20035;-78
2020/12/16 11:52:05;;;;;;;3.92;2.45;;;15.70;67.20;;;;;;4994286;28;20035;-78
2020/12/16 11:54:38;;;;;;;3.60;2.25;;;15.60;67.20;;;;;;4985950;28;20097;-79
2020/12/16 11:57:10;;;;;;;4.72;2.92;;;15.70;67.20;;;;;;5010967;28;20440;-77
2020/12/16 11:59:40;;;;;;;3.72;2.42;;;15.60;67.20;;;;;;5005591;28;20030;-77
2020/12/16 12:02:07;;;;;;;3.63;2.42;;;15.70;67.30;;;;;;4995017;28;20121;-77
2020/12/16 12:04:33;;;;;;;4.03;2.50;;;15.70;67.20;;;;;;5005653;28;20030;-76
2020/12/16 12:07:01;;;;;;;3.15;2.22;;;15.60;67.20;;;;;;4992781;28;20416;-77
2020/12/16 12:09:32;;;;;;;4.25;2.10;;;15.70;67.20;;;;;;5000058;28;20387;-77
2020/12/16 12:11:58;;;;;;;2.95;2.10;;;15.70;67.20;;;;;;5002352;28;21429;-77
2020/12/16 12:14:24;;;;;;;2.72;2.10;;;15.70;67.20;;;;;;4990709;28;20528;-77
2020/12/16 12:16:53;;;;;;;3.78;2.30;;;15.60;67.20;;;;;;4995507;28;20034;-77
2020/12/16 12:19:31;;;;;;;3.00;2.33;;;15.70;67.20;;;;;;4995777;28;20124;-76
2020/12/16 12:21:57;;;;;;;;;;;15.70;67.20;;;;;;5010275;28;20042;-78
2020/12/16 12:24:23;;;;;;;4.18;2.58;;;15.70;67.10;;;;;;4996371;28;20495;-77
2020/12/16 12:26:55;;;;;;;3.47;2.00;;;15.70;67.10;;;;;;4994196;28;20492;-78
2020/12/16 12:29:27;;;;;;;5.20;2.50;;;15.70;67.10;;;;;;4993975;28;20436;-77
2020/12/16 12:31:57;;;;;;;3.50;1.92;;;15.70;67.10;;;;;;5005769;28;20132;-78
2020/12/16 12:34:23;;;;;;;3.72;2.10;;;15.70;67.10;;;;;;5001129;28;20034;-77
2020/12/16 12:36:50;;;;;;;3.30;2.08;;;15.70;67.10;;;;;;4992506;28;20512;-77
2020/12/16 12:39:23;;;;;;;2.88;1.70;;;15.70;67.10;;;;;;5010300;28;20144;-77
2020/12/16 12:41:54;;;;;;;3.20;2.15;;;15.70;67.10;;;;;;4998749;28;20034;-79
2020/12/16 12:44:21;;;;;;;3.15;2.17;;;15.70;67.10;;;;;;5008344;28;20140;-77
2020/12/16 12:46:50;;;;;;;4.82;2.67;;;15.70;67.10;;;;;;5010118;28;20440;-77
2020/12/16 12:49:22;;;;;;;3.53;2.58;;;15.70;67.00;;;;;;4992928;28;20440;-77
2020/12/16 12:51:53;;;;;;;3.17;2.10;;;15.70;67.00;;;;;;4993262;28;20040;-76
2020/12/16 12:54:25;;;;;;;3.35;1.98;;;15.70;67.00;;;;;;4998720;28;20103;-77
2020/12/16 12:56:57;;;;;;;3.30;2.13;;;15.70;67.00;;;;;;5001013;28;20034;-77
2020/12/16 12:59:24;;;;;;;3.78;2.22;;;15.70;67.00;;;;;;5006016;28;20138;-78
2020/12/16 13:01:55;;;;;;;3.38;2.15;;;15.70;67.10;;;;;;4991031;28;20392;-77
2020/12/16 13:04:24;;;;;;;3.85;2.35;;;15.70;67.10;;;;;;4991843;28;20038;-77
2020/12/16 13:07:00;;;;;;;4.80;2.60;;;15.70;67.10;;;;;;4992840;28;20042;-78
2020/12/16 13:09:35;;;;;;;3.40;2.25;;;15.70;67.20;;;;;;4987796;28;20393;-77
2020/12/16 13:12:15;;;;;;;3.72;2.22;;;15.70;67.20;;;;;;4992078;28;20404;-78
2020/12/16 13:15:03;;;;;;;2.90;2.03;;;15.70;67.20;;;;;;4992822;28;20070;-77
2020/12/16 13:17:30;;;;;;;3.28;2.03;;;15.70;67.20;;;;;;4993806;28;20392;-78
2020/12/16 13:19:56;;;;;;;3.35;2.22;;;15.70;67.20;;;;;;4993177;28;20057;-78
2020/12/16 13:22:25;;;;;;;3.22;2.08;;;15.70;67.20;;;;;;4994504;28;20540;-78
2020/12/16 13:24:57;;;;;;;3.20;2.50;;;15.70;67.20;;;;;;5010554;28;20030;-77
2020/12/16 13:27:24;;;;;;;2.65;1.92;;;15.70;67.20;;;;;;4987965;28;20041;-78
2020/12/16 13:29:54;;;;;;;3.30;1.92;;;15.70;67.20;;;;;;4991551;28;20045;-78
2020/12/16 13:32:25;;;;;;;3.63;2.38;;;15.70;67.20;;;;;;4998309;28;20057;-79
2020/12/16 13:34:51;;;;;;;3.55;2.40;;;15.70;67.20;;;;;;4999513;28;20364;-78
2020/12/16 13:37:24;;;;;;;2.78;1.90;;;15.70;67.20;;;;;;4995898;28;20057;-78
2020/12/16 13:39:55;;;;;;;3.38;2.10;;;15.70;67.20;;;;;;5006497;28;20039;-78
2020/12/16 13:42:24;;;;;;;4.50;2.70;;;15.70;67.30;;;;;;5005814;28;20433;-80
2020/12/16 13:44:49;;;;;;;2.58;2.00;;;15.60;67.30;;;;;;5007648;28;20099;-78
2020/12/16 13:47:19;;;;;;;2.97;2.20;;;15.70;67.30;;;;;;4988071;28;20514;-78
2020/12/16 13:49:51;;;;;;;4.22;2.28;;;15.60;67.30;;;;;;4989975;28;20129;-78